createdAt,value
2017-09-10T10:03:12.402Z,21.20
2017-09-10T10:05:39.813Z,19.20
2017-09-10T10:08:07.297Z,20.40
2017-09-10T10:10:34.995Z,20.30
2017-09-10T10:13:03.396Z,20.50
2017-09-10T10:15:31.107Z,20.00
2017-09-10T10:17:58.533Z,19.30
2017-09-10T10:20:25.955Z,19.80
2017-09-10T10:22:53.380Z,20.60
2017-09-10T10:28:14.805Z,22.00
2017-09-10T10:30:42.228Z,21.60
2017-09-10T10:33:09.658Z,22.10
2017-09-10T10:35:37.108Z,20.60
2017-09-10T10:38:04.515Z,20.60
2017-09-10T10:40:32.121Z,21.00
2017-09-10T10:42:59.537Z,21.00
2017-09-10T10:45:26.947Z,20.70
2017-09-10T10:47:54.363Z,20.60
2017-09-10T10:50:21.948Z,21.00
2017-09-10T10:52:49.404Z,20.90
2017-09-10T10:55:16.856Z,21.40
2017-09-10T10:57:44.622Z,21.50
2017-09-10T11:00:12.036Z,21.20
2017-09-10T11:02:39.535Z,21.10
2017-09-10T11:05:06.955Z,20.90
2017-09-10T11:07:34.384Z,21.00
2017-09-10T11:10:01.814Z,21.00
2017-09-10T11:12:29.268Z,20.60
2017-09-10T11:14:56.819Z,19.50
2017-09-10T11:17:24.272Z,18.50
2017-09-10T11:19:51.687Z,17.40
2017-09-10T11:22:19.187Z,18.00
2017-09-10T11:24:46.636Z,15.90
2017-09-10T11:27:14.055Z,15.80
2017-09-10T11:29:41.472Z,14.90
2017-09-10T11:32:09.016Z,14.10
2017-09-10T11:34:36.481Z,14.40
2017-09-10T11:37:03.944Z,12.90
2017-09-10T11:39:32.260Z,12.00
2017-09-10T11:41:59.753Z,11.20
2017-09-10T11:44:27.216Z,12.20
2017-09-10T11:46:54.628Z,10.80
2017-09-10T11:49:22.136Z,11.30
2017-09-10T11:51:50.777Z,12.00
2017-09-10T11:54:18.207Z,11.90
2017-09-10T11:56:45.728Z,11.60
2017-09-10T11:59:13.155Z,11.60
2017-09-10T12:01:40.568Z,12.00
2017-09-10T12:04:08.004Z,13.20
2017-09-10T12:06:35.424Z,13.70
2017-09-10T12:09:03.008Z,12.00
2017-09-10T12:11:30.470Z,13.80
2017-09-10T12:13:57.919Z,13.50
2017-09-10T12:16:25.344Z,13.30
2017-09-10T12:18:52.835Z,8.50
2017-09-10T12:21:20.248Z,9.10
2017-09-10T12:23:47.659Z,9.00
2017-09-10T12:26:15.081Z,9.10
2017-09-10T12:28:42.583Z,7.70
2017-09-10T12:31:10.009Z,8.90
2017-09-10T12:33:37.559Z,9.40
2017-09-10T12:36:05.039Z,10.10
2017-09-10T12:38:32.484Z,10.70
2017-09-10T12:40:59.932Z,10.30
2017-09-10T12:43:27.345Z,7.00
2017-09-10T12:45:54.763Z,8.00
2017-09-10T12:48:22.310Z,7.10
2017-09-10T12:50:49.730Z,6.30
2017-09-10T12:53:17.141Z,5.00
2017-09-10T12:55:44.675Z,5.10
2017-09-10T12:58:12.100Z,4.50
2017-09-10T13:00:39.522Z,2.80
2017-09-10T13:03:06.972Z,1.00
2017-09-10T13:05:34.504Z,1.00
2017-09-10T13:08:01.955Z,1.00
2017-09-10T13:10:29.367Z,1.00
2017-09-10T13:12:56.800Z,1.00
2017-09-10T13:15:24.207Z,1.00
2017-09-10T13:17:51.799Z,1.00
2017-09-10T13:20:19.260Z,1.00
2017-09-10T13:22:46.859Z,1.00
2017-09-10T13:25:15.251Z,1.00
2017-09-10T13:27:42.728Z,1.00
2017-09-10T13:30:10.289Z,1.00
2017-09-10T13:32:37.700Z,1.00
2017-09-10T13:35:05.187Z,1.00
2017-09-10T13:37:32.600Z,1.00
2017-09-10T13:40:00.015Z,1.00
2017-09-10T13:42:27.428Z,1.00
2017-09-10T13:44:54.860Z,1.00
2017-09-10T13:47:22.383Z,1.00
2017-09-10T13:49:49.774Z,1.00
2017-09-10T13:52:17.200Z,1.00
2017-09-10T13:54:44.607Z,1.00
2017-09-10T13:57:12.034Z,1.00
2017-09-10T13:59:39.434Z,1.00
2017-09-10T14:02:06.858Z,1.00
2017-09-10T14:04:34.271Z,1.00
2017-09-10T14:07:01.707Z,1.00
2017-09-10T14:09:29.113Z,1.00
2017-09-10T14:11:56.536Z,1.00
2017-09-10T14:14:23.939Z,1.00
2017-09-10T14:16:51.368Z,1.00
2017-09-10T14:19:18.779Z,1.00
2017-09-10T14:21:46.197Z,1.00
2017-09-10T14:24:13.615Z,1.00
2017-09-10T14:26:41.038Z,1.00
2017-09-10T14:29:09.215Z,1.00
2017-09-10T14:31:36.635Z,1.00
2017-09-10T14:34:04.046Z,1.00
2017-09-10T14:36:31.463Z,1.00
2017-09-10T14:38:59.635Z,1.00
2017-09-10T14:41:27.072Z,1.00
2017-09-10T14:43:54.486Z,1.00
2017-09-10T14:46:21.888Z,1.00
2017-09-10T14:48:49.475Z,1.00
2017-09-10T14:51:16.891Z,1.00
2017-09-10T14:53:44.315Z,1.00
2017-09-10T14:56:11.723Z,1.00
2017-09-10T14:58:39.164Z,1.00
2017-09-10T15:01:06.581Z,1.00
2017-09-10T15:03:34.004Z,1.00
2017-09-10T15:06:01.690Z,1.00
2017-09-10T15:08:29.152Z,1.00
2017-09-10T15:10:56.608Z,1.00
2017-09-10T15:13:24.028Z,1.00
2017-09-10T15:15:51.441Z,1.00
2017-09-10T15:18:18.976Z,1.00
2017-09-10T15:20:46.432Z,1.00
2017-09-10T15:23:13.856Z,1.00
2017-09-10T15:25:42.032Z,1.00
2017-09-10T15:28:09.727Z,1.00
2017-09-10T15:30:37.127Z,1.00
2017-09-10T15:33:04.627Z,1.00
2017-09-10T15:35:32.039Z,1.00
2017-09-10T15:37:59.473Z,1.00
2017-09-10T15:40:26.907Z,1.00
2017-09-10T15:42:54.364Z,1.00
2017-09-10T15:45:21.824Z,1.00
2017-09-10T15:47:49.268Z,1.00
2017-09-10T15:50:16.841Z,1.00
2017-09-10T15:52:44.291Z,1.00
2017-09-10T15:55:11.711Z,1.00
2017-09-10T15:57:39.125Z,1.00
2017-09-10T16:00:06.552Z,1.00
2017-09-10T16:02:33.960Z,1.00
2017-09-10T16:05:01.444Z,1.00
2017-09-10T16:07:29.039Z,1.00
2017-09-10T16:09:56.444Z,1.00
2017-09-10T16:12:23.855Z,1.00
2017-09-10T16:14:51.296Z,1.00
2017-09-10T16:17:18.771Z,1.00
2017-09-10T16:19:46.313Z,1.00
2017-09-10T16:22:13.711Z,1.00
2017-09-10T16:24:41.138Z,1.00
2017-09-10T16:27:08.551Z,1.00
2017-09-10T16:29:35.975Z,1.00
2017-09-10T16:32:03.387Z,1.00
2017-09-10T16:34:30.804Z,1.00
2017-09-10T16:36:58.229Z,1.00
2017-09-10T16:39:25.655Z,1.00
2017-09-10T16:41:53.053Z,1.00
2017-09-10T16:44:20.462Z,1.00
2017-09-10T16:46:47.892Z,1.00
2017-09-10T16:49:15.327Z,1.00
2017-09-10T16:51:43.519Z,1.00
2017-09-10T16:54:10.923Z,1.00
2017-09-10T16:56:38.362Z,1.00
2017-09-10T16:59:06.659Z,1.00
2017-09-10T17:01:34.039Z,1.00
2017-09-10T17:04:01.499Z,1.00
2017-09-10T17:06:28.904Z,1.00
2017-09-10T17:08:56.317Z,1.00
2017-09-10T17:11:24.499Z,1.00
2017-09-10T17:13:51.916Z,1.00
2017-09-10T17:16:19.327Z,1.00
2017-09-10T17:18:46.751Z,1.00
2017-09-10T17:21:14.176Z,1.00
2017-09-10T17:23:41.727Z,1.00
2017-09-10T17:26:09.119Z,1.00
2017-09-10T17:28:36.079Z,1.00
2017-09-10T17:31:03.066Z,1.40
2017-09-10T17:33:30.471Z,1.90
2017-09-10T17:35:58.661Z,3.40
2017-09-10T17:38:26.067Z,3.30
2017-09-10T17:40:53.583Z,4.20
2017-09-10T17:43:20.999Z,4.80
2017-09-10T17:45:48.412Z,5.40
2017-09-10T17:48:15.835Z,6.00
2017-09-10T17:50:43.315Z,6.40
2017-09-10T17:53:10.787Z,7.10
2017-09-10T17:55:38.228Z,7.10
2017-09-10T17:58:05.648Z,7.70
2017-09-10T18:00:33.843Z,8.40
2017-09-10T18:03:01.313Z,8.40
2017-09-10T18:05:28.724Z,8.70
2017-09-10T18:07:56.144Z,9.00
2017-09-10T18:10:23.555Z,9.50
2017-09-10T18:12:51.055Z,10.10
2017-09-10T18:15:18.596Z,10.40
2017-09-10T18:17:46.018Z,10.80
2017-09-10T18:20:13.435Z,11.30
2017-09-10T18:22:40.879Z,11.70
2017-09-10T18:25:08.427Z,12.00
2017-09-10T18:27:35.839Z,12.30
2017-09-10T18:30:03.692Z,12.50
2017-09-10T18:32:31.127Z,12.90
2017-09-10T18:34:58.864Z,13.40
2017-09-10T18:37:26.303Z,13.80
2017-09-10T18:39:53.787Z,13.70
2017-09-10T18:42:21.394Z,14.00
2017-09-10T18:44:48.991Z,14.60
2017-09-10T18:47:16.428Z,14.90
2017-09-10T18:49:43.819Z,15.20
2017-09-10T18:52:11.372Z,15.30
2017-09-10T18:54:38.791Z,15.20
2017-09-10T18:57:06.208Z,15.50
2017-09-10T18:59:33.637Z,15.50
2017-09-10T19:02:01.051Z,15.70
2017-09-10T19:04:28.512Z,15.90
2017-09-10T19:06:56.104Z,16.40
2017-09-10T19:09:23.568Z,16.50
2017-09-10T19:11:51.180Z,16.90
2017-09-10T19:14:19.716Z,17.00
2017-09-10T19:16:47.180Z,17.00
2017-09-10T19:19:14.605Z,17.50
2017-09-10T19:21:42.020Z,18.30
2017-09-10T19:24:09.448Z,18.20
2017-09-10T19:26:36.876Z,18.40
2017-09-10T19:29:04.411Z,18.70
2017-09-10T19:31:31.887Z,19.00
2017-09-10T19:33:58.880Z,20.00
2017-09-10T19:36:26.360Z,20.20
2017-09-10T19:38:54.957Z,20.20
2017-09-10T19:41:22.569Z,20.20
2017-09-10T19:43:50.018Z,20.50
2017-09-10T19:46:17.444Z,20.40
2017-09-10T19:48:44.910Z,20.40
2017-09-10T19:51:12.332Z,20.30
2017-09-10T19:53:39.914Z,20.50
2017-09-10T19:56:07.346Z,20.70
2017-09-10T19:58:34.756Z,20.70
2017-09-10T20:01:02.193Z,21.00
2017-09-10T20:03:29.619Z,21.40
2017-09-10T20:05:57.126Z,21.60
2017-09-10T20:08:24.548Z,21.80
2017-09-10T20:10:52.108Z,21.60
2017-09-10T20:13:19.564Z,21.60
2017-09-10T20:15:46.983Z,21.90
2017-09-10T20:18:14.394Z,22.00
2017-09-10T20:20:41.842Z,22.40
2017-09-10T20:23:09.297Z,22.80
2017-09-10T20:25:36.720Z,23.30
2017-09-10T20:28:04.842Z,23.60
2017-09-10T20:30:32.367Z,23.30
2017-09-10T20:32:59.784Z,23.50
2017-09-10T20:35:27.208Z,23.60
2017-09-10T20:37:54.737Z,23.70
2017-09-10T20:40:22.199Z,23.60
2017-09-10T20:42:49.652Z,23.80
2017-09-10T20:45:17.076Z,23.60
2017-09-10T20:47:44.487Z,23.50
2017-09-10T20:50:11.939Z,23.60
2017-09-10T20:52:39.352Z,23.50
2017-09-10T20:55:06.927Z,23.80
2017-09-10T20:57:34.352Z,24.10
2017-09-10T21:00:01.774Z,24.80
2017-09-10T21:02:29.209Z,24.70
2017-09-10T21:04:56.624Z,24.80
2017-09-10T21:07:24.128Z,25.30
2017-09-10T21:09:51.881Z,25.50
2017-09-10T21:12:19.384Z,25.70
2017-09-10T21:14:46.796Z,25.80
2017-09-10T21:17:14.219Z,25.50
2017-09-10T21:19:41.711Z,26.40
2017-09-10T21:22:09.143Z,26.80
2017-09-10T21:24:36.713Z,27.10
2017-09-10T21:27:04.179Z,26.40
2017-09-10T21:29:31.600Z,27.10
2017-09-10T21:31:59.028Z,26.90
2017-09-10T21:34:26.446Z,28.10
2017-09-10T21:36:53.945Z,28.30
2017-09-10T21:39:21.359Z,28.80
2017-09-10T21:41:48.911Z,29.00
2017-09-10T21:44:16.336Z,29.10
2017-09-10T21:46:43.824Z,30.00
2017-09-10T21:49:11.251Z,29.80
2017-09-10T21:51:38.667Z,30.00
2017-09-10T21:54:06.107Z,30.30
2017-09-10T21:56:33.556Z,30.20
2017-09-10T21:59:01.105Z,30.90
2017-09-10T22:01:28.519Z,31.10
2017-09-10T22:03:56.019Z,30.70
2017-09-10T22:06:23.472Z,31.20
2017-09-10T22:08:50.912Z,32.10
2017-09-10T22:11:18.328Z,32.20
2017-09-10T22:13:45.754Z,32.50
2017-09-10T22:16:13.304Z,33.10
2017-09-10T22:18:40.732Z,33.10
2017-09-10T22:21:08.167Z,32.90
2017-09-10T22:23:35.587Z,33.30
2017-09-10T22:26:03.013Z,33.30
2017-09-10T22:28:30.581Z,33.50
2017-09-10T22:30:58.346Z,33.40
2017-09-10T22:33:25.777Z,33.40
2017-09-10T22:35:53.220Z,33.20
2017-09-10T22:38:20.715Z,33.50
2017-09-10T22:40:48.119Z,33.60
2017-09-10T22:43:15.535Z,33.40
2017-09-10T22:45:42.976Z,33.50
2017-09-10T22:48:10.539Z,33.50
2017-09-10T22:50:37.967Z,33.80
2017-09-10T22:53:05.391Z,33.60
2017-09-10T22:55:32.906Z,33.90
2017-09-10T22:58:00.315Z,34.30
2017-09-10T23:00:27.818Z,34.00
2017-09-10T23:02:55.280Z,33.70
2017-09-10T23:05:22.731Z,33.90
2017-09-10T23:07:50.143Z,33.60
2017-09-10T23:10:17.644Z,33.70
2017-09-10T23:12:45.055Z,33.70
2017-09-10T23:15:12.475Z,33.80
2017-09-10T23:17:39.897Z,34.00
2017-09-10T23:20:07.464Z,34.30
2017-09-10T23:22:34.927Z,35.20
2017-09-10T23:25:02.593Z,36.10
2017-09-10T23:27:30.148Z,36.30
2017-09-10T23:29:57.571Z,36.90
2017-09-10T23:32:25.056Z,37.30
2017-09-10T23:34:52.478Z,38.10
2017-09-10T23:37:19.891Z,38.30
2017-09-10T23:39:47.337Z,38.80
2017-09-10T23:42:14.779Z,38.70
2017-09-10T23:44:42.256Z,38.70
2017-09-10T23:47:09.790Z,38.70
2017-09-10T23:49:37.204Z,38.70
2017-09-10T23:52:04.627Z,38.60
2017-09-10T23:54:32.050Z,38.60
2017-09-10T23:56:59.619Z,38.60
2017-09-10T23:59:27.063Z,38.10
